Ciutat Vella, Spain
Current Conditions -  °F | °C
As of 12:30 AM on Wednesday 26 Nov 2014 (Local Time) from LEBL Reporting Station
Few Clouds Few Clouds  
Wind Chill: 61°   Ceiling: Unl
Heat Index: 61°   Visibility: 6mi
Dew Point: 59°   Wind: 2mph
Humidity: 94%   Direction: 320°NW
Pressure: 29.97"   Gusts: NA
Location:  41.38°N, 2.17°E
Report Text: LEBL 252330Z 32002KT 9000 FEW013 16/15 Q1015 NOSIG
Loading
Personal Weather Stations






























Interactive Weather Map New forecast layout! Learn more

10-Day Weather Forecast

Advertisements
Track Severe Weather on mobile